Time;durP1;ratioP1;P1;durP2;ratioP2;P2;SDS_P1;SDS_P2;PMS_P1;PMS_P2;Temp;Humidity;BMP_temperature;BMP_pressure;BME280_temperature;BME280_humidity;BME280_pressure;Samples;Min_cycle;Max_cycle;Signal;HPM_P1;HPM_P2
2022/04/12 00:00:00;;;;;;;3.80;2.97;;;;;;;;;;516061;28;1466;-87
2022/04/12 00:00:16;;;;;;;4.18;3.10;;;;;;;;;;514855;28;1568;-87
2022/04/12 00:00:31;;;;;;;4.70;3.20;;;;;;;;;;516132;28;1622;-87
2022/04/12 00:00:48;;;;;;;5.03;3.10;;;;;;;;;;516629;28;1472;-87
2022/04/12 00:01:05;;;;;;;4.50;2.90;;;;;;;;;;518810;28;1314;-87
2022/04/12 00:01:20;;;;;;;4.70;3.10;;;;;;;;;;517887;28;1442;-87
2022/04/12 00:01:35;;;;;;;4.60;3.20;;;;;;;;;;517434;28;1643;-87
2022/04/12 00:01:51;;;;;;;5.10;3.23;;;;;;;;;;520081;28;1445;-86
2022/04/12 00:02:06;;;;;;;5.40;3.30;;;;;;;;;;521770;28;1623;-87
2022/04/12 00:02:22;;;;;;;4.40;3.10;;;;;;;;;;521526;28;1437;-87
2022/04/12 00:02:37;;;;;;;3.80;3.03;;;;;;;;;;519881;28;1559;-87
2022/04/12 00:02:53;;;;;;;4.40;3.17;;;;;;;;;;522141;28;1337;-87
2022/04/12 00:03:08;;;;;;;4.57;3.17;;;;;;;;;;518428;28;1621;-87
2022/04/12 00:03:24;;;;;;;4.10;3.00;;;;;;;;;;518627;28;1394;-87
2022/04/12 00:03:39;;;;;;;5.27;3.07;;;;;;;;;;518787;28;1443;-87
2022/04/12 00:03:57;;;;;;;5.87;3.23;;;;;;;;;;518130;28;1418;-87
2022/04/12 00:04:12;;;;;;;4.60;3.00;;;;;;;;;;518351;28;1656;-87
2022/04/12 00:04:27;;;;;;;4.60;3.20;;;;;;;;;;521015;28;1620;-87
2022/04/12 00:04:43;;;;;;;4.63;3.40;;;;;;;;;;519675;28;1434;-87
2022/04/12 00:04:58;;;;;;;3.93;3.10;;;;;;;;;;522051;28;1717;-87
2022/04/12 00:05:14;;;;;;;3.70;3.00;;;;;;;;;;520130;28;1403;-87
2022/04/12 00:05:29;;;;;;;3.73;3.10;;;;;;;;;;520094;28;1556;-87
2022/04/12 00:05:45;;;;;;;4.30;3.30;;;;;;;;;;520002;28;1402;-87
2022/04/12 00:06:01;;;;;;;4.80;3.30;;;;;;;;;;517821;28;1522;-87
2022/04/12 00:06:16;;;;;;;4.80;3.20;;;;;;;;;;518561;28;1370;-87
2022/04/12 00:06:32;;;;;;;5.03;3.50;;;;;;;;;;520080;28;1563;-87
2022/04/12 00:06:48;;;;;;;5.50;3.60;;;;;;;;;;520203;28;1799;-87
2022/04/12 00:07:04;;;;;;;5.03;3.43;;;;;;;;;;520633;28;1754;-87
2022/04/12 00:07:19;;;;;;;4.85;3.30;;;;;;;;;;520247;28;1654;-86
2022/04/12 00:07:35;;;;;;;4.80;3.23;;;;;;;;;;518320;28;1452;-87
2022/04/12 00:07:51;;;;;;;4.32;3.20;;;;;;;;;;518489;28;2063;-87
2022/04/12 00:08:07;;;;;;;4.68;3.30;;;;;;;;;;519113;28;1329;-87
2022/04/12 00:08:23;;;;;;;4.55;3.17;;;;;;;;;;519887;28;1713;-87
2022/04/12 00:08:38;;;;;;;4.60;3.10;;;;;;;;;;518947;28;1455;-87
2022/04/12 00:08:54;;;;;;;4.85;3.15;;;;;;;;;;518952;28;1431;-87
2022/04/12 00:09:10;;;;;;;5.13;3.10;;;;;;;;;;519131;28;1391;-87
2022/04/12 00:09:25;;;;;;;5.57;3.00;;;;;;;;;;519300;28;1404;-87
2022/04/12 00:09:41;;;;;;;5.03;3.00;;;;;;;;;;520438;28;1489;-87
2022/04/12 00:09:56;;;;;;;4.43;3.07;;;;;;;;;;522508;28;1965;-87
2022/04/12 00:10:13;;;;;;;4.25;3.00;;;;;;;;;;520632;28;1615;-87
2022/04/12 00:10:30;;;;;;;4.78;3.00;;;;;;;;;;519842;28;1453;-87
2022/04/12 00:10:46;;;;;;;4.57;3.10;;;;;;;;;;519426;28;1424;-87
2022/04/12 00:11:01;;;;;;;4.40;3.17;;;;;;;;;;519622;28;1379;-87
2022/04/12 00:11:17;;;;;;;4.43;3.10;;;;;;;;;;518269;28;1344;-87
2022/04/12 00:11:33;;;;;;;4.77;3.00;;;;;;;;;;516407;28;1552;-88
2022/04/12 00:11:48;;;;;;;4.67;3.20;;;;;;;;;;517962;28;1447;-87
2022/04/12 00:12:04;;;;;;;5.05;3.30;;;;;;;;;;517752;28;1539;-87
2022/04/12 00:12:19;;;;;;;5.77;3.20;;;;;;;;;;518492;28;1609;-87
2022/04/12 00:12:37;;;;;;;5.23;3.10;;;;;;;;;;516919;28;1627;-87
2022/04/12 00:12:53;;;;;;;4.03;2.95;;;;;;;;;;520373;28;1563;-87
2022/04/12 00:13:09;;;;;;;5.68;3.30;;;;;;;;;;520097;28;1470;-87
2022/04/12 00:13:25;;;;;;;5.32;3.08;;;;;;;;;;520976;28;1706;-87
2022/04/12 00:13:40;;;;;;;3.60;2.93;;;;;;;;;;520104;28;1436;-87
2022/04/12 00:13:56;;;;;;;4.15;3.08;;;;;;;;;;517331;28;1430;-87
2022/04/12 00:14:11;;;;;;;4.87;3.00;;;;;;;;;;518859;28;1411;-87
2022/04/12 00:14:27;;;;;;;5.15;3.05;;;;;;;;;;522683;28;1669;-87
2022/04/12 00:14:44;;;;;;;4.97;3.08;;;;;;;;;;522198;28;1512;-87
2022/04/12 00:14:59;;;;;;;5.10;3.20;;;;;;;;;;520585;28;1465;-87
2022/04/12 00:15:15;;;;;;;4.28;3.10;;;;;;;;;;519676;28;1471;-87
2022/04/12 00:15:32;;;;;;;4.30;3.20;;;;;;;;;;520350;28;1497;-87
2022/04/12 00:15:51;;;;;;;4.90;3.30;;;;;;;;;;520853;28;1730;-86
2022/04/12 00:16:06;;;;;;;4.18;3.13;;;;;;;;;;522287;28;1598;-87
2022/04/12 00:16:22;;;;;;;3.85;2.90;;;;;;;;;;522065;28;1422;-87
2022/04/12 00:16:37;;;;;;;4.07;3.15;;;;;;;;;;522724;28;1744;-87
2022/04/12 00:19:02;;;;;;;4.27;3.10;;;;;;;;;;524813;28;1587;-87
2022/04/12 00:19:13;;;;;;;4.60;2.92;;;;;;;;;;526042;28;1447;-87
2022/04/12 00:19:28;;;;;;;4.00;3.10;;;;;;;;;;526049;28;1422;-88
2022/04/12 00:19:43;;;;;;;4.47;3.13;;;;;;;;;;525118;28;1475;-87
2022/04/12 00:19:59;;;;;;;4.90;2.90;;;;;;;;;;523818;28;1643;-87
2022/04/12 00:20:15;;;;;;;4.40;2.70;;;;;;;;;;521341;28;1490;-87
2022/04/12 00:20:30;;;;;;;4.72;2.78;;;;;;;;;;519075;28;1445;-87
2022/04/12 00:20:46;;;;;;;5.17;2.97;;;;;;;;;;519501;28;1368;-87
2022/04/12 00:21:02;;;;;;;4.72;3.05;;;;;;;;;;517123;28;1640;-87
2022/04/12 00:21:17;;;;;;;3.63;2.80;;;;;;;;;;518299;28;1343;-87
2022/04/12 00:21:34;;;;;;;3.70;2.70;;;;;;;;;;517789;28;1725;-87
2022/04/12 00:21:50;;;;;;;4.38;2.95;;;;;;;;;;518611;28;1423;-87
2022/04/12 00:22:05;;;;;;;4.22;2.90;;;;;;;;;;518059;28;1526;-87
2022/04/12 00:22:20;;;;;;;4.37;3.00;;;;;;;;;;518298;28;1557;-87
2022/04/12 00:22:36;;;;;;;4.47;3.03;;;;;;;;;;516611;28;1549;-88
2022/04/12 00:22:58;;;;;;;4.10;2.90;;;;;;;;;;518426;28;1411;-87
2022/04/12 00:23:14;;;;;;;4.45;2.95;;;;;;;;;;519085;28;1745;-87
2022/04/12 00:23:30;;;;;;;4.18;3.00;;;;;;;;;;517066;28;1514;-87
2022/04/12 00:23:46;;;;;;;4.68;3.20;;;;;;;;;;518155;28;1448;-87
2022/04/12 00:24:06;;;;;;;5.40;3.30;;;;;;;;;;519314;28;1498;-87
2022/04/12 00:24:22;;;;;;;4.82;2.92;;;;;;;;;;520021;28;1494;-87
2022/04/12 00:24:37;;;;;;;4.80;2.78;;;;;;;;;;520652;28;1491;-87
2022/04/12 00:24:53;;;;;;;4.30;2.83;;;;;;;;;;518987;28;1737;-87
2022/04/12 00:25:10;;;;;;;5.20;3.03;;;;;;;;;;520913;28;1461;-87
2022/04/12 00:25:27;;;;;;;4.82;3.20;;;;;;;;;;520927;28;1574;-87
2022/04/12 00:25:44;;;;;;;5.18;3.22;;;;;;;;;;521337;28;1406;-87
2022/04/12 00:25:59;;;;;;;6.85;3.20;;;;;;;;;;518242;28;1475;-87
2022/04/12 00:26:16;;;;;;;6.07;3.17;;;;;;;;;;520314;28;1390;-87
2022/04/12 00:26:32;;;;;;;4.50;2.90;;;;;;;;;;518324;28;1451;-87
2022/04/12 00:26:49;;;;;;;3.85;2.90;;;;;;;;;;516131;28;1479;-87
2022/04/12 00:27:04;;;;;;;4.53;2.95;;;;;;;;;;518382;28;1411;-87
2022/04/12 00:27:20;;;;;;;4.72;2.92;;;;;;;;;;520656;28;1773;-87
2022/04/12 00:27:40;;;;;;;4.17;2.90;;;;;;;;;;519981;28;1437;-87
2022/04/12 00:27:57;;;;;;;4.80;3.05;;;;;;;;;;519144;28;1454;-87
2022/04/12 00:28:13;;;;;;;5.28;3.25;;;;;;;;;;520367;28;1370;-87
2022/04/12 00:28:29;;;;;;;5.45;3.30;;;;;;;;;;520323;28;1426;-87
2022/04/12 00:28:44;;;;;;;5.47;3.23;;;;;;;;;;520116;28;1532;-87
2022/04/12 00:29:00;;;;;;;4.10;2.97;;;;;;;;;;520685;28;1447;-88
2022/04/12 00:29:15;;;;;;;4.00;2.88;;;;;;;;;;518262;28;1428;-87
2022/04/12 00:29:32;;;;;;;4.20;3.00;;;;;;;;;;520581;28;1430;-87
2022/04/12 00:29:47;;;;;;;3.90;2.90;;;;;;;;;;521906;28;1473;-87
2022/04/12 00:30:08;;;;;;;4.13;2.90;;;;;;;;;;519495;28;1950;-87
2022/04/12 00:30:25;;;;;;;4.70;3.10;;;;;;;;;;521519;28;1699;-87
2022/04/12 00:30:41;;;;;;;4.70;2.88;;;;;;;;;;523157;28;1496;-87
2022/04/12 00:30:56;;;;;;;4.40;3.03;;;;;;;;;;523432;28;1622;-87
2022/04/12 00:31:11;;;;;;;4.37;3.20;;;;;;;;;;522299;28;1599;-87
2022/04/12 00:31:29;;;;;;;4.28;3.20;;;;;;;;;;523102;28;1501;-87
2022/04/12 00:31:45;;;;;;;4.97;3.20;;;;;;;;;;520642;28;1465;-87
2022/04/12 00:32:00;;;;;;;4.17;3.00;;;;;;;;;;518568;28;1663;-87
2022/04/12 00:32:15;;;;;;;4.40;2.90;;;;;;;;;;519074;28;1475;-87
2022/04/12 00:32:31;;;;;;;4.30;2.90;;;;;;;;;;516506;28;1653;-87
2022/04/12 00:32:47;;;;;;;3.63;3.00;;;;;;;;;;515658;28;1621;-87
2022/04/12 00:33:03;;;;;;;4.32;3.05;;;;;;;;;;515689;28;1407;-87
2022/04/12 00:33:18;;;;;;;4.30;3.00;;;;;;;;;;519382;28;1474;-87
2022/04/12 00:33:34;;;;;;;3.90;3.00;;;;;;;;;;518665;28;1450;-87
2022/04/12 00:33:49;;;;;;;4.10;3.10;;;;;;;;;;520374;28;1470;-87
2022/04/12 00:34:05;;;;;;;4.55;3.22;;;;;;;;;;520605;28;1394;-87
2022/04/12 00:34:21;;;;;;;4.57;3.20;;;;;;;;;;520801;28;1712;-87
2022/04/12 00:34:37;;;;;;;4.37;2.90;;;;;;;;;;522100;28;1390;-87
2022/04/12 00:34:52;;;;;;;4.95;3.00;;;;;;;;;;525108;28;1347;-87
2022/04/12 00:35:08;;;;;;;5.30;3.25;;;;;;;;;;524899;28;1468;-87
2022/04/12 00:35:25;;;;;;;4.87;3.07;;;;;;;;;;522070;28;1461;-87
2022/04/12 00:35:40;;;;;;;4.20;3.03;;;;;;;;;;519474;28;1552;-87
2022/04/12 00:35:58;;;;;;;4.33;3.20;;;;;;;;;;518585;28;1459;-88
2022/04/12 00:36:14;;;;;;;5.43;3.22;;;;;;;;;;520804;28;1438;-87
2022/04/12 00:36:30;;;;;;;5.20;3.20;;;;;;;;;;520339;28;2618;-87
2022/04/12 00:36:47;;;;;;;5.45;3.33;;;;;;;;;;520711;28;1557;-87
2022/04/12 00:37:03;;;;;;;5.13;3.22;;;;;;;;;;522517;28;1465;-87
2022/04/12 00:37:19;;;;;;;4.75;3.00;;;;;;;;;;520710;28;1847;-86
2022/04/12 00:37:35;;;;;;;4.40;3.00;;;;;;;;;;518868;28;1345;-87
2022/04/12 00:37:52;;;;;;;4.18;3.00;;;;;;;;;;520783;28;1757;-87
2022/04/12 00:38:33;;;;;;;4.55;3.17;;;;;;;;;;521871;28;1506;-87
2022/04/12 00:38:44;;;;;;;4.18;2.83;;;;;;;;;;522787;28;1480;-87
2022/04/12 00:38:59;;;;;;;4.10;3.00;;;;;;;;;;524102;28;1469;-87
2022/04/12 00:39:15;;;;;;;4.05;3.03;;;;;;;;;;521344;28;1499;-87
2022/04/12 00:39:30;;;;;;;5.03;3.10;;;;;;;;;;523440;28;1411;-87
2022/04/12 00:39:46;;;;;;;5.13;3.20;;;;;;;;;;522254;28;1517;-86
2022/04/12 00:40:01;;;;;;;4.27;3.20;;;;;;;;;;523114;28;1482;-87
2022/04/12 00:40:20;;;;;;;5.20;3.20;;;;;;;;;;522789;28;1568;-87
2022/04/12 00:40:36;;;;;;;5.03;3.20;;;;;;;;;;520597;28;1459;-87
2022/04/12 00:40:53;;;;;;;4.60;3.20;;;;;;;;;;520415;28;1539;-88
2022/04/12 00:41:11;;;;;;;4.35;3.17;;;;;;;;;;520885;28;1497;-87
2022/04/12 00:41:35;;;;;;;4.93;3.30;;;;;;;;;;520058;28;1426;-87
2022/04/12 00:41:50;;;;;;;5.10;3.30;;;;;;;;;;522289;28;1593;-88
2022/04/12 00:42:06;;;;;;;5.03;3.20;;;;;;;;;;520730;28;1423;-87
2022/04/12 00:42:21;;;;;;;4.65;3.08;;;;;;;;;;518181;28;1912;-87
2022/04/12 00:42:37;;;;;;;5.10;3.00;;;;;;;;;;520528;28;1549;-87
2022/04/12 00:42:53;;;;;;;4.75;3.00;;;;;;;;;;518524;28;1559;-87
2022/04/12 00:43:09;;;;;;;4.57;3.10;;;;;;;;;;519428;28;1621;-87
2022/04/12 00:43:27;;;;;;;4.72;3.17;;;;;;;;;;521060;28;1493;-87
2022/04/12 00:43:42;;;;;;;6.18;3.10;;;;;;;;;;519525;28;1435;-87
2022/04/12 00:43:58;;;;;;;5.43;3.00;;;;;;;;;;519499;28;1561;-87
2022/04/12 00:44:13;;;;;;;4.18;3.00;;;;;;;;;;519461;28;1510;-87
2022/04/12 00:44:29;;;;;;;4.17;2.90;;;;;;;;;;521666;28;1382;-87
2022/04/12 00:44:44;;;;;;;4.33;2.90;;;;;;;;;;524127;28;1622;-87
2022/04/12 00:45:00;;;;;;;4.17;2.80;;;;;;;;;;521587;28;1470;-87
2022/04/12 00:45:16;;;;;;;4.03;3.00;;;;;;;;;;521893;28;1458;-87
2022/04/12 00:45:32;;;;;;;4.22;3.10;;;;;;;;;;521658;28;1559;-86
2022/04/12 00:45:47;;;;;;;3.85;2.88;;;;;;;;;;519713;28;1402;-87
2022/04/12 00:46:03;;;;;;;4.13;2.90;;;;;;;;;;519450;28;1497;-87
2022/04/12 00:46:18;;;;;;;4.70;3.17;;;;;;;;;;518562;28;1438;-87
2022/04/12 00:46:34;;;;;;;4.60;3.10;;;;;;;;;;519283;28;1504;-87
2022/04/12 00:46:49;;;;;;;4.32;3.00;;;;;;;;;;517096;28;1640;-87
2022/04/12 00:47:06;;;;;;;4.00;3.00;;;;;;;;;;517935;28;1500;-86
2022/04/12 00:47:21;;;;;;;3.88;3.00;;;;;;;;;;517605;28;1490;-87
2022/04/12 00:47:37;;;;;;;4.30;3.00;;;;;;;;;;517941;28;1596;-88
2022/04/12 00:47:54;;;;;;;4.65;2.92;;;;;;;;;;518368;28;1376;-87
2022/04/12 00:48:10;;;;;;;4.25;2.83;;;;;;;;;;518255;28;1456;-87
2022/04/12 00:48:27;;;;;;;4.70;2.80;;;;;;;;;;518374;28;1685;-87
2022/04/12 00:48:43;;;;;;;4.88;2.88;;;;;;;;;;519029;28;1396;-86
2022/04/12 00:48:58;;;;;;;5.15;3.00;;;;;;;;;;519679;28;1367;-87
2022/04/12 00:49:14;;;;;;;4.55;2.95;;;;;;;;;;518281;28;1494;-87
2022/04/12 00:49:29;;;;;;;4.33;2.97;;;;;;;;;;518525;28;1410;-87
2022/04/12 00:49:45;;;;;;;4.03;3.08;;;;;;;;;;518282;28;1718;-87
2022/04/12 00:50:00;;;;;;;4.30;3.00;;;;;;;;;;516527;28;1934;-87
2022/04/12 00:50:16;;;;;;;5.07;3.20;;;;;;;;;;518183;28;1568;-87
2022/04/12 00:50:31;;;;;;;4.82;3.30;;;;;;;;;;517287;28;1431;-87
2022/04/12 00:50:47;;;;;;;4.23;3.20;;;;;;;;;;518268;28;1732;-87
2022/04/12 00:51:02;;;;;;;4.07;3.30;;;;;;;;;;518367;28;1424;-87
2022/04/12 00:51:20;;;;;;;4.43;3.50;;;;;;;;;;518328;28;1577;-87
2022/04/12 00:51:35;;;;;;;4.32;3.28;;;;;;;;;;520577;28;1406;-87
2022/04/12 00:51:52;;;;;;;4.50;3.20;;;;;;;;;;520731;28;1525;-88
2022/04/12 00:52:09;;;;;;;5.18;3.40;;;;;;;;;;521425;28;1541;-87
2022/04/12 00:52:26;;;;;;;5.10;3.40;;;;;;;;;;523610;28;1429;-87
2022/04/12 00:52:45;;;;;;;4.70;3.15;;;;;;;;;;524372;28;1462;-87
2022/04/12 00:53:01;;;;;;;4.68;3.25;;;;;;;;;;522605;28;1405;-87
2022/04/12 00:53:16;;;;;;;5.63;3.60;;;;;;;;;;521069;28;1565;-87
2022/04/12 00:53:32;;;;;;;5.97;3.80;;;;;;;;;;518829;28;1550;-86
2022/04/12 00:53:48;;;;;;;5.55;3.70;;;;;;;;;;518369;28;1442;-87
2022/04/12 00:54:05;;;;;;;5.60;3.75;;;;;;;;;;518472;28;1674;-86
2022/04/12 00:54:23;;;;;;;5.80;4.00;;;;;;;;;;520486;28;1473;-87
2022/04/12 00:54:39;;;;;;;6.32;4.10;;;;;;;;;;518757;28;1449;-87
2022/04/12 00:54:55;;;;;;;6.80;4.50;;;;;;;;;;520112;28;1552;-86
2022/04/12 00:55:11;;;;;;;7.53;4.80;;;;;;;;;;521452;28;1408;-87
2022/04/12 00:55:29;;;;;;;7.72;4.68;;;;;;;;;;519478;28;1471;-87
2022/04/12 00:55:45;;;;;;;7.13;4.28;;;;;;;;;;519691;28;1473;-87
2022/04/12 00:56:01;;;;;;;5.70;4.00;;;;;;;;;;519663;28;1705;-87
2022/04/12 00:56:17;;;;;;;5.47;3.80;;;;;;;;;;522202;28;1399;-87
2022/04/12 00:56:32;;;;;;;5.35;3.70;;;;;;;;;;522153;28;1500;-88
2022/04/12 00:56:50;;;;;;;5.28;3.90;;;;;;;;;;523292;28;1492;-87
2022/04/12 00:57:06;;;;;;;5.50;3.90;;;;;;;;;;521966;28;1677;-87
2022/04/12 00:57:21;;;;;;;5.28;3.65;;;;;;;;;;519364;28;1423;-87
2022/04/12 00:57:37;;;;;;;4.88;3.50;;;;;;;;;;519754;28;1659;-87
2022/04/12 00:57:52;;;;;;;5.47;3.47;;;;;;;;;;518959;28;1467;-87
2022/04/12 00:58:08;;;;;;;5.88;3.47;;;;;;;;;;517336;28;1467;-87
2022/04/12 00:58:24;;;;;;;5.38;3.30;;;;;;;;;;519091;28;1549;-87
2022/04/12 00:58:44;;;;;;;5.43;3.45;;;;;;;;;;518876;28;1478;-87
2022/04/12 00:59:02;;;;;;;6.90;3.65;;;;;;;;;;519522;28;1580;-87
2022/04/12 00:59:19;;;;;;;6.00;3.50;;;;;;;;;;519434;28;1420;-87
2022/04/12 00:59:35;;;;;;;5.55;3.30;;;;;;;;;;518554;28;1550;-87
2022/04/12 00:59:51;;;;;;;5.45;3.47;;;;;;;;;;516793;28;1440;-87
2022/04/12 01:00:09;;;;;;;4.97;3.40;;;;;;;;;;516365;28;1527;-87
2022/04/12 01:00:24;;;;;;;4.20;3.30;;;;;;;;;;518559;28;1438;-87
2022/04/12 01:00:39;;;;;;;4.23;3.30;;;;;;;;;;518511;28;1537;-87
2022/04/12 01:00:55;;;;;;;4.40;3.40;;;;;;;;;;516546;28;1593;-86
2022/04/12 01:01:10;;;;;;;5.13;3.50;;;;;;;;;;516180;28;1439;-87
2022/04/12 01:01:26;;;;;;;6.53;3.55;;;;;;;;;;518709;28;1418;-87
2022/04/12 01:01:41;;;;;;;6.70;3.57;;;;;;;;;;519014;28;1507;-87
2022/04/12 01:01:57;;;;;;;5.23;3.50;;;;;;;;;;520018;28;1564;-87
2022/04/12 01:02:12;;;;;;;4.75;3.30;;;;;;;;;;519788;28;1434;-87
2022/04/12 01:02:28;;;;;;;4.63;3.10;;;;;;;;;;522219;28;1631;-87
2022/04/12 01:02:43;;;;;;;5.07;3.10;;;;;;;;;;522117;28;1589;-87
2022/04/12 01:02:59;;;;;;;4.60;3.25;;;;;;;;;;522486;28;1461;-87
2022/04/12 01:03:15;;;;;;;4.53;3.60;;;;;;;;;;518846;28;1395;-87
2022/04/12 01:03:30;;;;;;;5.20;3.58;;;;;;;;;;518873;28;1484;-87
2022/04/12 01:03:46;;;;;;;5.68;3.30;;;;;;;;;;520361;28;1469;-88
2022/04/12 01:04:01;;;;;;;5.50;3.13;;;;;;;;;;519862;28;1372;-87
2022/04/12 01:04:17;;;;;;;4.40;3.05;;;;;;;;;;519779;28;1536;-87
2022/04/12 01:04:33;;;;;;;4.33;3.30;;;;;;;;;;518884;28;1498;-87
2022/04/12 01:04:48;;;;;;;5.35;3.45;;;;;;;;;;517648;28;1711;-87
2022/04/12 01:05:04;;;;;;;5.53;3.42;;;;;;;;;;518552;28;1495;-88
2022/04/12 01:05:20;;;;;;;4.18;3.20;;;;;;;;;;518831;28;1525;-87
2022/04/12 01:05:36;;;;;;;4.47;3.23;;;;;;;;;;521269;28;1462;-87
2022/04/12 01:05:53;;;;;;;5.20;3.47;;;;;;;;;;520542;28;1523;-87
2022/04/12 01:06:08;;;;;;;5.60;3.50;;;;;;;;;;520289;28;1599;-87
2022/04/12 01:06:24;;;;;;;5.18;3.25;;;;;;;;;;518874;28;1548;-87
2022/04/12 01:06:39;;;;;;;4.63;3.13;;;;;;;;;;518622;28;1651;-87
2022/04/12 01:06:55;;;;;;;4.82;3.28;;;;;;;;;;519121;28;1635;-87
2022/04/12 01:07:11;;;;;;;5.67;3.50;;;;;;;;;;516426;28;1598;-88
2022/04/12 01:07:27;;;;;;;4.95;3.28;;;;;;;;;;518872;28;1395;-87
2022/04/12 01:07:43;;;;;;;3.90;3.08;;;;;;;;;;520804;28;1650;-87
2022/04/12 01:07:59;;;;;;;3.88;3.30;;;;;;;;;;520447;28;1474;-87
2022/04/12 01:08:14;;;;;;;4.40;3.27;;;;;;;;;;519730;28;1493;-87
2022/04/12 01:08:29;;;;;;;4.68;3.20;;;;;;;;;;520298;28;1473;-87
2022/04/12 01:08:45;;;;;;;4.57;3.30;;;;;;;;;;518220;28;1444;-87
2022/04/12 01:09:04;;;;;;;4.95;3.35;;;;;;;;;;517522;28;1482;-87
2022/04/12 01:09:21;;;;;;;5.05;3.22;;;;;;;;;;518164;28;1549;-87
2022/04/12 01:09:36;;;;;;;4.70;3.45;;;;;;;;;;517736;28;1571;-87
2022/04/12 01:09:55;;;;;;;4.30;3.55;;;;;;;;;;517479;28;1919;-87
2022/04/12 01:10:11;;;;;;;5.53;3.50;;;;;;;;;;520318;28;1533;-87
2022/04/12 01:10:26;;;;;;;4.85;3.40;;;;;;;;;;520371;28;1383;-87
2022/04/12 01:10:44;;;;;;;3.80;3.30;;;;;;;;;;521838;28;1707;-87
2022/04/12 01:11:06;;;;;;;5.22;3.70;;;;;;;;;;520508;28;1419;-87
2022/04/12 01:11:22;;;;;;;5.57;3.22;;;;;;;;;;518864;28;1629;-87
2022/04/12 01:11:39;;;;;;;5.05;3.03;;;;;;;;;;519229;28;1408;-87
2022/04/12 01:11:57;;;;;;;4.80;3.30;;;;;;;;;;518768;28;1337;-87
2022/04/12 01:12:12;;;;;;;4.38;3.10;;;;;;;;;;519010;28;1501;-87
2022/04/12 01:12:30;;;;;;;4.50;3.07;;;;;;;;;;518385;28;1570;-87
2022/04/12 01:12:46;;;;;;;4.82;3.25;;;;;;;;;;518037;28;1425;-87
2022/04/12 01:13:03;;;;;;;5.03;3.30;;;;;;;;;;518965;28;1456;-87
2022/04/12 01:13:18;;;;;;;4.95;3.25;;;;;;;;;;516909;28;1432;-87
2022/04/12 01:13:34;;;;;;;4.90;3.43;;;;;;;;;;516725;28;1571;-87
2022/04/12 01:13:49;;;;;;;4.78;3.30;;;;;;;;;;518483;28;1320;-87
2022/04/12 01:14:06;;;;;;;5.10;3.20;;;;;;;;;;518844;28;1533;-87
2022/04/12 01:14:23;;;;;;;5.82;3.30;;;;;;;;;;520406;28;1402;-87
2022/04/12 01:14:38;;;;;;;5.03;3.47;;;;;;;;;;521021;28;1571;-87
2022/04/12 01:14:54;;;;;;;4.67;3.40;;;;;;;;;;520438;28;1482;-87
2022/04/12 01:15:14;;;;;;;4.88;3.20;;;;;;;;;;520896;28;1422;-87
2022/04/12 01:15:30;;;;;;;4.53;3.40;;;;;;;;;;521436;28;1812;-87
2022/04/12 01:15:46;;;;;;;4.10;3.25;;;;;;;;;;520777;28;1791;-88
2022/04/12 01:16:01;;;;;;;4.00;3.20;;;;;;;;;;520431;28;1533;-87
2022/04/12 01:16:17;;;;;;;4.23;3.30;;;;;;;;;;522319;28;1791;-87
2022/04/12 01:16:33;;;;;;;4.32;3.50;;;;;;;;;;520962;28;1326;-87
2022/04/12 01:16:49;;;;;;;3.70;3.20;;;;;;;;;;519383;28;1535;-88
2022/04/12 01:17:05;;;;;;;4.70;3.20;;;;;;;;;;518398;28;1724;-87
2022/04/12 01:17:21;;;;;;;4.65;3.40;;;;;;;;;;519798;28;1453;-88
2022/04/12 01:17:36;;;;;;;4.33;3.20;;;;;;;;;;520431;28;1535;-87
2022/04/12 01:17:52;;;;;;;4.10;2.90;;;;;;;;;;520877;28;1336;-87
2022/04/12 01:18:08;;;;;;;3.53;2.90;;;;;;;;;;522327;28;1538;-87
2022/04/12 01:18:23;;;;;;;3.78;3.10;;;;;;;;;;521241;28;1423;-87
2022/04/12 01:18:40;;;;;;;4.65;3.15;;;;;;;;;;520875;28;1748;-86
2022/04/12 01:18:56;;;;;;;4.65;3.30;;;;;;;;;;521182;28;1517;-87
2022/04/12 01:19:12;;;;;;;4.35;3.40;;;;;;;;;;520170;28;1459;-87
2022/04/12 01:19:27;;;;;;;4.37;3.47;;;;;;;;;;518849;28;1541;-87
2022/04/12 01:19:43;;;;;;;4.65;3.50;;;;;;;;;;520475;28;1551;-87
2022/04/12 01:19:58;;;;;;;4.87;3.30;;;;;;;;;;520809;28;1441;-87
2022/04/12 01:20:17;;;;;;;5.18;3.30;;;;;;;;;;518442;28;1488;-86
2022/04/12 01:20:32;;;;;;;5.07;3.28;;;;;;;;;;518400;28;1572;-87
2022/04/12 01:20:48;;;;;;;4.32;3.20;;;;;;;;;;516774;28;1604;-87
2022/04/12 01:21:04;;;;;;;3.87;3.00;;;;;;;;;;518543;28;1432;-87
2022/04/12 01:21:20;;;;;;;4.57;3.25;;;;;;;;;;518659;28;1573;-87
2022/04/12 01:21:49;;;;;;;4.28;3.30;;;;;;;;;;519599;28;1596;-87
2022/04/12 01:22:08;;;;;;;4.88;3.30;;;;;;;;;;521150;28;1490;-87
2022/04/12 01:22:25;;;;;;;4.07;3.10;;;;;;;;;;520961;28;1431;-87
2022/04/12 01:22:59;;;;;;;4.13;3.15;;;;;;;;;;520931;28;1427;-87
2022/04/12 01:23:21;;;;;;;5.00;3.40;;;;;;;;;;519811;28;1427;-86
2022/04/12 01:23:56;;;;;;;4.88;3.22;;;;;;;;;;521606;28;1615;-88
2022/04/12 01:24:12;;;;;;;5.45;3.50;;;;;;;;;;520946;28;1493;-87
2022/04/12 01:24:29;;;;;;;4.93;3.20;;;;;;;;;;521835;28;1364;-87
2022/04/12 01:24:45;;;;;;;4.30;3.00;;;;;;;;;;520953;28;1662;-87
2022/04/12 01:25:01;;;;;;;4.77;3.30;;;;;;;;;;520961;28;1479;-87
2022/04/12 01:25:18;;;;;;;5.28;3.38;;;;;;;;;;523422;28;1390;-87
2022/04/12 01:25:34;;;;;;;6.30;3.38;;;;;;;;;;523223;28;1489;-87
2022/04/12 01:25:50;;;;;;;6.05;3.47;;;;;;;;;;522489;28;1506;-87
2022/04/12 01:26:06;;;;;;;4.70;3.22;;;;;;;;;;523796;28;1425;-88
2022/04/12 01:26:22;;;;;;;4.85;3.35;;;;;;;;;;522992;28;1787;-87
2022/04/12 01:26:39;;;;;;;4.65;3.33;;;;;;;;;;522669;28;1355;-87
2022/04/12 01:26:55;;;;;;;4.75;3.35;;;;;;;;;;525403;28;1514;-87
2022/04/12 01:27:10;;;;;;;5.38;3.50;;;;;;;;;;522981;28;1599;-87
2022/04/12 01:27:27;;;;;;;5.78;3.33;;;;;;;;;;523123;28;1539;-87
2022/04/12 01:27:43;;;;;;;5.93;3.58;;;;;;;;;;520635;28;1656;-87
2022/04/12 01:27:58;;;;;;;5.73;3.50;;;;;;;;;;520123;28;1591;-87
2022/04/12 01:28:14;;;;;;;4.90;3.08;;;;;;;;;;520120;28;1513;-87
2022/04/12 01:28:29;;;;;;;4.63;3.20;;;;;;;;;;520334;28;1420;-87
2022/04/12 01:28:44;;;;;;;5.60;3.30;;;;;;;;;;520415;28;1700;-87
2022/04/12 01:29:00;;;;;;;5.40;3.20;;;;;;;;;;518460;28;1408;-87
2022/04/12 01:29:15;;;;;;;5.25;3.33;;;;;;;;;;520482;28;1661;-87
2022/04/12 01:29:34;;;;;;;5.33;3.50;;;;;;;;;;520438;28;1324;-87
2022/04/12 01:29:49;;;;;;;4.72;3.47;;;;;;;;;;518852;28;1480;-87
2022/04/12 01:30:06;;;;;;;4.70;3.22;;;;;;;;;;518205;28;1973;-87
2022/04/12 01:30:21;;;;;;;4.07;3.03;;;;;;;;;;520764;28;1501;-87
2022/04/12 01:30:37;;;;;;;4.13;3.15;;;;;;;;;;522560;28;1449;-87
2022/04/12 01:30:54;;;;;;;4.53;3.20;;;;;;;;;;521977;28;1783;-87
2022/04/12 01:31:10;;;;;;;4.82;3.25;;;;;;;;;;524841;28;1370;-87
2022/04/12 01:31:26;;;;;;;5.68;3.60;;;;;;;;;;522686;28;1490;-87
2022/04/12 01:31:42;;;;;;;6.38;3.90;;;;;;;;;;520590;28;1376;-87
2022/04/12 01:31:57;;;;;;;5.20;3.60;;;;;;;;;;520488;28;1501;-87
2022/04/12 01:32:13;;;;;;;4.60;3.30;;;;;;;;;;522735;28;1409;-87
2022/04/12 01:32:29;;;;;;;4.88;3.30;;;;;;;;;;524279;28;1520;-87
2022/04/12 01:32:44;;;;;;;4.18;3.40;;;;;;;;;;524156;28;1390;-87
2022/04/12 01:32:59;;;;;;;4.40;3.40;;;;;;;;;;521901;28;1724;-87
2022/04/12 01:33:15;;;;;;;5.63;3.50;;;;;;;;;;522911;28;1485;-87
2022/04/12 01:33:30;;;;;;;5.38;3.60;;;;;;;;;;523062;28;1757;-87
2022/04/12 01:33:46;;;;;;;4.63;3.60;;;;;;;;;;524197;28;1576;-88
2022/04/12 01:34:01;;;;;;;4.23;3.60;;;;;;;;;;521554;28;1631;-87
2022/04/12 01:34:16;;;;;;;4.93;3.58;;;;;;;;;;521154;28;1455;-87
2022/04/12 01:34:32;;;;;;;4.70;3.40;;;;;;;;;;519707;28;1767;-87
2022/04/12 01:34:47;;;;;;;4.68;3.47;;;;;;;;;;519983;28;1503;-87
2022/04/12 01:35:03;;;;;;;5.70;3.70;;;;;;;;;;520798;28;1501;-87
2022/04/12 01:35:18;;;;;;;5.68;3.50;;;;;;;;;;520418;28;2562;-87
2022/04/12 01:35:34;;;;;;;5.50;3.50;;;;;;;;;;520647;28;1530;-87
2022/04/12 01:35:50;;;;;;;5.53;3.60;;;;;;;;;;520150;28;1453;-87
2022/04/12 01:36:06;;;;;;;5.65;3.60;;;;;;;;;;520675;28;1426;-87
2022/04/12 01:36:21;;;;;;;5.88;3.55;;;;;;;;;;522137;28;1483;-87
2022/04/12 01:36:37;;;;;;;4.23;3.40;;;;;;;;;;522141;28;1442;-87
2022/04/12 01:36:52;;;;;;;4.28;3.47;;;;;;;;;;521976;28;1568;-87
2022/04/12 01:37:07;;;;;;;5.07;3.50;;;;;;;;;;524283;28;1583;-87
2022/04/12 01:37:25;;;;;;;4.77;3.50;;;;;;;;;;522290;28;1388;-87
2022/04/12 01:37:40;;;;;;;3.95;3.40;;;;;;;;;;523004;28;1461;-87
2022/04/12 01:37:56;;;;;;;4.80;3.40;;;;;;;;;;521780;28;1616;-87
2022/04/12 01:38:12;;;;;;;5.50;3.53;;;;;;;;;;522141;28;1513;-87
2022/04/12 01:38:28;;;;;;;5.28;3.58;;;;;;;;;;521842;28;1748;-87
2022/04/12 01:38:43;;;;;;;4.45;3.50;;;;;;;;;;521717;28;1407;-87
2022/04/12 01:38:59;;;;;;;4.43;3.47;;;;;;;;;;520607;28;1359;-87
2022/04/12 01:39:14;;;;;;;6.03;3.60;;;;;;;;;;519012;28;1677;-87
2022/04/12 01:39:30;;;;;;;5.63;3.47;;;;;;;;;;519689;28;1851;-87
2022/04/12 01:39:45;;;;;;;4.60;3.30;;;;;;;;;;519827;28;1531;-87
2022/04/12 01:40:02;;;;;;;5.47;3.50;;;;;;;;;;519120;28;1938;-87
2022/04/12 01:40:17;;;;;;;5.95;3.65;;;;;;;;;;517688;28;1653;-87
2022/04/12 01:40:33;;;;;;;5.27;3.57;;;;;;;;;;517045;28;1456;-87
2022/04/12 01:40:48;;;;;;;5.20;3.45;;;;;;;;;;517732;28;1611;-87
2022/04/12 01:41:04;;;;;;;5.87;3.50;;;;;;;;;;520351;28;1336;-87
2022/04/12 01:41:20;;;;;;;5.50;3.47;;;;;;;;;;521716;28;1438;-87
2022/04/12 01:41:35;;;;;;;5.00;3.45;;;;;;;;;;519864;28;1605;-87
2022/04/12 01:41:50;;;;;;;5.33;3.60;;;;;;;;;;519374;28;1376;-86
2022/04/12 01:42:06;;;;;;;5.15;3.70;;;;;;;;;;521735;28;1590;-87
2022/04/12 01:42:22;;;;;;;5.22;3.63;;;;;;;;;;521405;28;1470;-87